Tropical Cyclones
[Index]
Main Index Home Page Stock Weather Photos Extreme Storms Discussion Storm News and Storm Chasing Reports Tropical Cyclones / Hurricanes / Typhoons Weather Data and Links Wild Fires / Bushfires Weather Observation Techniques Weather Picture Catalogue Tornado Pictures and Reports Stock Video Footage and DVDs for sale
Season 2012-2013 Tropical Cyclone MITCHELL Track Map
Season 2012-2013 Summaries (Operational Data): [AU] [SIO] [SPAC] [SH]
<<- Previous TC | 2012-2013 Season | Next TC ->>

click for intensity scale information  Lat/long Grid: Show Hide

 Date Labels: Show Hide

Operational Tropical Cyclone Data : JTWC Advisories

Name: MITCHELL
Number: 1306

26 Dec 2012 12:00 UTC to 31 Dec 2012 23:00 UTC

    date/time    lat    long     hPa   cat  kts
2012-12-26 12   13.9   115.3    1010         15          
2012-12-26 18   14.0   114.9    1010         15          
2012-12-27 00   14.1   114.5    1010         15          
2012-12-27 06   14.3   114.0    1007         20          
2012-12-27 12   14.5   113.3    1004         25          
2012-12-27 18   14.8   112.6    1004         25          
2012-12-28 00   15.1   112.0    1000         30          
2012-12-28 06   15.4   111.5    1000         30          
2012-12-28 12   15.7   111.0    1000         30          
2012-12-28 18   16.3   110.7     996    1    35          
2012-12-29 00   17.0   110.6     993    1    40          
2012-12-29 06   17.9   110.5     989    1    45          
2012-12-29 12   19.0   110.3     993    1    40          
2012-12-29 18   20.0   110.2     993    1    40          
2012-12-30 00   21.3   110.1     993    1    40          
2012-12-30 06   22.6   110.0     996    1    35          
2012-12-30 12   23.9   109.8     996    1    35          
2012-12-30 18   25.4   109.3    1000         30          
2012-12-31 00   27.0   108.4    1000         30          
2012-12-31 06   28.2   107.9    1000         30          
2012-12-31 12   29.2   108.1    1000         30          
2012-12-31 18   30.8   109.0    1000         30          
2012-12-31 23   32.6   111.4                             
Winds are 10-min average.

Tropical cyclone tracks developed by Michael Bath using operational warnings and advisories and Google Maps.


[Australian Severe Weather index] [Copyright Notice] [Email Contacts] [Search This Site] [Privacy Policy]
Document: tropical_cyclone_mitchell.htm Updated: 2 May 2017